ADDS METAR Data INFO
IDs: Format: Raw Decoded Include TAF

Data at: 0938 UTC 25 Jun 2018

KWVI 250853Z AUTO 24003KT 9SM OVC013 16/13 A2996 RMK AO2 SLP145 T01560133 50000 $
KWVI 250753Z AUTO 25003KT 9SM OVC013 16/13 A2996 RMK AO2 SLP146 T01610133 402000139 $
KWVI 250653Z AUTO 24005KT 9SM OVC013 16/13 A2996 RMK AO2 SLP145 T01610133 $
KWVI 250553Z AUTO VRB03KT 9SM OVC013 16/13 A2996 RMK AO2 SLP145 T01610133 10183 20161 53006 $
KWVI 250453Z AUTO 24004KT 9SM OVC013 16/13 A2995 RMK AO2 SLP143 T01610133 $
KWVI 250402Z AUTO 25004KT 9SM OVC014 16/13 A2995 RMK AO2 T01610133 $
KWVI 250353Z AUTO 24007KT 9SM OVC015 16/13 A2994 RMK AO2 SLP139 T01610133 $
KWVI 250349Z AUTO 25006KT 9SM OVC015 16/13 A2994 RMK AO2 $
KWVI 250253Z AUTO 24008KT 8SM OVC013 16/13 A2994 RMK AO2 SLP139 T01610133 56003 $
KWVI 250209Z AUTO 25007KT 200V260 8SM OVC014 17/13 A2995 RMK AO2 T01670133 $
KWVI 250153Z AUTO 23009KT 8SM OVC015 17/13 A2994 RMK AO2 SLP140 T01670133 $
KWVI 250053Z AUTO 26009KT 9SM OVC016 18/14 A2994 RMK AO2 SLP138 T01780139 $
KWVI 242353Z AUTO 26010G14KT 9SM OVC016 18/14 A2995 RMK AO2 SLP142 T01830139 10200 20172 55001 $
KWVI 242253Z AUTO 25009G18KT 10SM OVC016 19/14 A2995 RMK AO2 SLP141 T01940139 $
KWVI 242153Z AUTO 25007KT 10SM OVC015 19/14 A2995 RMK AO2 SLP141 T01940139 $
KWVI 242126Z AUTO 28011G15KT 10SM OVC015 18/14 A2995 RMK AO2 T01830139 $
KWVI 242053Z AUTO 27007KT 10SM OVC014 18/14 A2995 RMK AO2 SLP143 T01830139 51012 $
KWVI 241953Z AUTO 27009KT 10SM OVC010 18/14 A2995 RMK AO2 SLP142 T01830139 $
KWVI 241853Z AUTO 26011G15KT 10SM OVC011 18/14 A2994 RMK AO2 SLP137 T01830139 $
KWVI 241753Z AUTO 23013G19KT 10SM BKN014 19/13 A2992 RMK AO2 SLP131 T01940133 10194 20144 53015 $
KWVI 241653Z AUTO 26007KT 10SM OVC011 17/13 A2990 RMK AO2 SLP125 T01720133 $
KWVI 241553Z AUTO 25006KT 9SM OVC012 17/13 A2988 RMK AO2 SLP118 T01670128 $
KWVI 241540Z AUTO 27006KT 9SM OVC010 16/13 A2988 RMK AO2 T01610128 $
KWVI 241453Z AUTO 25005KT 7SM OVC007 15/13 A2988 RMK AO2 CIG 005V011 SLP116 T01500128 51013 $
KWVI 241451Z AUTO 25006KT 7SM OVC005 14/13 A2987 RMK AO2 CIG 005V009 $
KWVI 241353Z AUTO 27006KT 8SM OVC009 14/13 A2985 RMK AO2 SLP108 T01440128 $
KWVI 241253Z AUTO 27004KT 8SM OVC008 14/13 A2984 RMK AO2 SLP103 T01440128 $
KWVI 241153Z AUTO 28003KT 7SM OVC007 14/13 A2983 RMK AO2 SLP100 T01440128 10144 20139 55002 $
KWVI 241053Z AUTO 27005KT 7SM OVC007 14/13 A2983 RMK AO2 SLP099 T01440128 $
KWVI 240953Z AUTO VRB03KT 7SM OVC006 14/13 A2983 RMK AO2 SLP101 T01440128 $
KWVI 240853Z AUTO 32004KT 6SM BR OVC006 14/13 A2984 RMK AO2 SLP103 T01390128 56005 $
KWVI 240753Z AUTO 31003KT 7SM OVC007 14/12 A2984 RMK AO2 SLP103 T01390122 402890094 $
KWVI 240653Z AUTO 30006KT 6SM BR OVC008 14/12 A2985 RMK AO2 SLP105 T01390122 $
KWVI 240553Z AUTO 29003KT 6SM BR OVC008 14/12 A2985 RMK AO2 SLP107 T01390122 10183 20133 53010 $
KWVI 240453Z AUTO 25004KT 6SM BR OVC008 13/12 A2984 RMK AO2 SLP104 T01330117 $
KWVI 240353Z AUTO 23004KT 6SM BR OVC008 14/12 A2983 RMK AO2 SLP101 T01390117 $
KWVI 240253Z AUTO 22005KT 5SM BR OVC009 14/12 A2982 RMK AO2 SLP098 T01390117 $
KWVI 240215Z AUTO 21008KT 5SM BR OVC009 14/12 A2983 RMK AO2 CIG 008V012 T01390117 $
KWVI 240202Z AUTO 21008KT 5SM HZ BKN011 15/12 A2982 RMK AO2 T01500117 $
KWVI 240153Z AUTO 20008KT 5SM HZ SCT011 15/12 A2982 RMK AO2 SLP097 T01500117 $
KWVI 240053Z AUTO 17009KT 6SM HZ CLR 17/12 A2982 RMK AO2 SLP096 T01670122 $
KWVI 232353Z AUTO 16009KT 7SM CLR 18/12 A2981 RMK AO2 SLP095 T01780122 10289 20178 51004
KWVI 232253Z AUTO 17009KT 7SM CLR 18/12 A2981 RMK AO2 SLP095 T01830122
KWVI 232153Z AUTO 17009KT 8SM CLR 21/13 A2981 RMK AO2 SLP092 T02060128